sensor_id;sensor_type;location;lat;lon;timestamp;pressure;altitude;pressure_sealevel;temperature;humidity
54512;BME280;40419;47.438;19.026;2022-10-26T00:01:19;100299.22;;;11.42;100.00
54512;BME280;40419;47.438;19.026;2022-10-26T00:03:50;100320.38;;;10.81;100.00
54512;BME280;40419;47.438;19.026;2022-10-26T00:06:20;100305.63;;;9.96;100.00
54512;BME280;40419;47.438;19.026;2022-10-26T00:08:47;100311.31;;;10.01;100.00
54512;BME280;40419;47.438;19.026;2022-10-26T00:11:13;100306.34;;;10.20;100.00
54512;BME280;40419;47.438;19.026;2022-10-26T00:13:44;100309.66;;;10.73;100.00
54512;BME280;40419;47.438;19.026;2022-10-26T00:16:16;100311.75;;;10.35;100.00
54512;BME280;40419;47.438;19.026;2022-10-26T00:18:42;100313.38;;;10.87;100.00
54512;BME280;40419;47.438;19.026;2022-10-26T00:21:10;100312.28;;;11.31;100.00
54512;BME280;40419;47.438;19.026;2022-10-26T00:23:38;100306.56;;;11.83;100.00
54512;BME280;40419;47.438;19.026;2022-10-26T00:26:06;100308.56;;;11.96;100.00
54512;BME280;40419;47.438;19.026;2022-10-26T00:28:33;100315.97;;;12.22;100.00
54512;BME280;40419;47.438;19.026;2022-10-26T00:31:06;100311.25;;;12.44;100.00
54512;BME280;40419;47.438;19.026;2022-10-26T00:33:37;100318.84;;;11.44;100.00
54512;BME280;40419;47.438;19.026;2022-10-26T00:36:05;100320.28;;;10.53;100.00
54512;BME280;40419;47.438;19.026;2022-10-26T00:38:38;100319.44;;;10.01;100.00
54512;BME280;40419;47.438;19.026;2022-10-26T00:41:14;100313.19;;;10.01;100.00
54512;BME280;40419;47.438;19.026;2022-10-26T00:43:44;100319.69;;;10.21;100.00
54512;BME280;40419;47.438;19.026;2022-10-26T00:46:31;100314.53;;;10.26;100.00
54512;BME280;40419;47.438;19.026;2022-10-26T00:49:01;100306.84;;;10.08;100.00
54512;BME280;40419;47.438;19.026;2022-10-26T00:51:35;100304.03;;;10.02;100.00
54512;BME280;40419;47.438;19.026;2022-10-26T00:54:06;100306.94;;;10.00;100.00
54512;BME280;40419;47.438;19.026;2022-10-26T00:56:36;100317.75;;;10.15;100.00
54512;BME280;40419;47.438;19.026;2022-10-26T00:59:07;100305.91;;;10.16;100.00
54512;BME280;40419;47.438;19.026;2022-10-26T01:01:39;100308.06;;;10.06;100.00
54512;BME280;40419;47.438;19.026;2022-10-26T01:04:08;100306.19;;;10.06;100.00
54512;BME280;40419;47.438;19.026;2022-10-26T01:06:37;100307.28;;;10.12;100.00
54512;BME280;40419;47.438;19.026;2022-10-26T01:09:05;100311.31;;;10.16;100.00
54512;BME280;40419;47.438;19.026;2022-10-26T01:11:34;100307.66;;;10.24;100.00
54512;BME280;40419;47.438;19.026;2022-10-26T01:14:05;100302.25;;;10.39;100.00
54512;BME280;40419;47.438;19.026;2022-10-26T01:17:10;100305.78;;;10.24;100.00
54512;BME280;40419;47.438;19.026;2022-10-26T01:22:55;100316.97;;;10.21;100.00
54512;BME280;40419;47.438;19.026;2022-10-26T01:31:21;100313.09;;;10.09;100.00
54512;BME280;40419;47.438;19.026;2022-10-26T01:34:14;100313.34;;;10.14;100.00
54512;BME280;40419;47.438;19.026;2022-10-26T01:36:52;100326.03;;;10.14;100.00
54512;BME280;40419;47.438;19.026;2022-10-26T01:41:59;100302.81;;;10.19;100.00
54512;BME280;40419;47.438;19.026;2022-10-26T01:44:32;100294.94;;;10.24;100.00
54512;BME280;40419;47.438;19.026;2022-10-26T01:47:02;100295.22;;;10.29;100.00
54512;BME280;40419;47.438;19.026;2022-10-26T01:49:34;100294.50;;;10.36;100.00
54512;BME280;40419;47.438;19.026;2022-10-26T01:52:02;100302.31;;;10.45;100.00
54512;BME280;40419;47.438;19.026;2022-10-26T01:54:28;100293.16;;;10.46;100.00
54512;BME280;40419;47.438;19.026;2022-10-26T01:56:56;100295.41;;;10.43;100.00
54512;BME280;40419;47.438;19.026;2022-10-26T02:10:09;100283.56;;;10.29;100.00
54512;BME280;40419;47.438;19.026;2022-10-26T02:12:44;100286.06;;;10.31;100.00
54512;BME280;40419;47.438;19.026;2022-10-26T02:15:21;100283.16;;;10.32;100.00
54512;BME280;40419;47.438;19.026;2022-10-26T02:20:24;100277.94;;;10.31;100.00
54512;BME280;40419;47.438;19.026;2022-10-26T02:22:56;100279.34;;;10.41;100.00
54512;BME280;40419;47.438;19.026;2022-10-26T02:25:26;100281.75;;;10.00;100.00
54512;BME280;40419;47.438;19.026;2022-10-26T02:28:00;100279.53;;;9.88;100.00
54512;BME280;40419;47.438;19.026;2022-10-26T02:30:32;100286.69;;;9.81;100.00
54512;BME280;40419;47.438;19.026;2022-10-26T02:33:01;100292.78;;;9.83;100.00
54512;BME280;40419;47.438;19.026;2022-10-26T02:35:34;100285.69;;;9.82;100.00
54512;BME280;40419;47.438;19.026;2022-10-26T02:38:06;100308.72;;;9.78;100.00
54512;BME280;40419;47.438;19.026;2022-10-26T02:40:37;100296.41;;;9.90;100.00
54512;BME280;40419;47.438;19.026;2022-10-26T02:43:14;100298.81;;;9.85;100.00
54512;BME280;40419;47.438;19.026;2022-10-26T02:46:01;100302.75;;;9.83;100.00
54512;BME280;40419;47.438;19.026;2022-10-26T02:48:30;100308.81;;;9.85;100.00
54512;BME280;40419;47.438;19.026;2022-10-26T02:51:11;100302.41;;;9.86;100.00
54512;BME280;40419;47.438;19.026;2022-10-26T02:53:57;100311.41;;;9.78;100.00
54512;BME280;40419;47.438;19.026;2022-10-26T02:56:43;100308.81;;;9.85;100.00
54512;BME280;40419;47.438;19.026;2022-10-26T02:59:14;100312.53;;;9.84;100.00
54512;BME280;40419;47.438;19.026;2022-10-26T03:01:41;100312.47;;;9.92;100.00
54512;BME280;40419;47.438;19.026;2022-10-26T03:04:08;100318.50;;;9.79;100.00
54512;BME280;40419;47.438;19.026;2022-10-26T03:06:35;100315.81;;;9.79;100.00
54512;BME280;40419;47.438;19.026;2022-10-26T03:09:11;100320.19;;;9.80;100.00
54512;BME280;40419;47.438;19.026;2022-10-26T03:11:39;100313.94;;;9.65;100.00
54512;BME280;40419;47.438;19.026;2022-10-26T03:14:06;100320.19;;;9.65;100.00
54512;BME280;40419;47.438;19.026;2022-10-26T03:16:36;100324.97;;;9.25;100.00
54512;BME280;40419;47.438;19.026;2022-10-26T03:19:04;100324.72;;;9.35;100.00
54512;BME280;40419;47.438;19.026;2022-10-26T03:21:32;100325.00;;;9.40;100.00
54512;BME280;40419;47.438;19.026;2022-10-26T03:23:59;100322.03;;;9.35;100.00
54512;BME280;40419;47.438;19.026;2022-10-26T03:26:30;100321.47;;;9.39;100.00
54512;BME280;40419;47.438;19.026;2022-10-26T03:28:56;100319.00;;;9.30;100.00
54512;BME280;40419;47.438;19.026;2022-10-26T03:31:21;100323.41;;;9.31;100.00
54512;BME280;40419;47.438;19.026;2022-10-26T03:33:49;100323.41;;;9.31;100.00
54512;BME280;40419;47.438;19.026;2022-10-26T03:36:22;100338.19;;;9.20;100.00
54512;BME280;40419;47.438;19.026;2022-10-26T03:38:47;100337.19;;;9.21;100.00
54512;BME280;40419;47.438;19.026;2022-10-26T03:41:18;100329.34;;;9.26;100.00
54512;BME280;40419;47.438;19.026;2022-10-26T03:43:43;100330.88;;;9.29;100.00
54512;BME280;40419;47.438;19.026;2022-10-26T03:46:11;100342.31;;;9.31;100.00
54512;BME280;40419;47.438;19.026;2022-10-26T03:48:36;100334.31;;;9.37;100.00
54512;BME280;40419;47.438;19.026;2022-10-26T03:51:02;100346.44;;;9.42;100.00
54512;BME280;40419;47.438;19.026;2022-10-26T03:53:27;100349.44;;;9.47;100.00
54512;BME280;40419;47.438;19.026;2022-10-26T03:55:55;100353.44;;;9.51;100.00
54512;BME280;40419;47.438;19.026;2022-10-26T03:58:21;100350.75;;;9.66;100.00
54512;BME280;40419;47.438;19.026;2022-10-26T04:00:46;100339.38;;;9.55;100.00
54512;BME280;40419;47.438;19.026;2022-10-26T04:03:14;100343.13;;;9.54;100.00
54512;BME280;40419;47.438;19.026;2022-10-26T04:05:42;100352.31;;;9.60;100.00
54512;BME280;40419;47.438;19.026;2022-10-26T04:08:10;100354.47;;;9.50;100.00
54512;BME280;40419;47.438;19.026;2022-10-26T04:10:37;100360.50;;;9.37;100.00
54512;BME280;40419;47.438;19.026;2022-10-26T04:13:05;100360.28;;;9.23;100.00
54512;BME280;40419;47.438;19.026;2022-10-26T04:15:33;100353.94;;;9.16;100.00
54512;BME280;40419;47.438;19.026;2022-10-26T04:18:02;100349.00;;;9.20;100.00
54512;BME280;40419;47.438;19.026;2022-10-26T04:20:30;100346.84;;;9.15;100.00
54512;BME280;40419;47.438;19.026;2022-10-26T04:23:04;100349.91;;;8.89;100.00
54512;BME280;40419;47.438;19.026;2022-10-26T04:25:34;100352.25;;;8.92;100.00
54512;BME280;40419;47.438;19.026;2022-10-26T04:28:02;100354.44;;;8.97;100.00
54512;BME280;40419;47.438;19.026;2022-10-26T04:30:31;100347.25;;;9.04;100.00
54512;BME280;40419;47.438;19.026;2022-10-26T04:32:59;100349.78;;;9.05;100.00
54512;BME280;40419;47.438;19.026;2022-10-26T04:35:26;100354.81;;;9.09;100.00
54512;BME280;40419;47.438;19.026;2022-10-26T04:37:58;100359.16;;;8.95;100.00
54512;BME280;40419;47.438;19.026;2022-10-26T04:40:27;100359.66;;;8.98;100.00
54512;BME280;40419;47.438;19.026;2022-10-26T04:42:55;100358.59;;;8.99;100.00
54512;BME280;40419;47.438;19.026;2022-10-26T04:45:23;100354.19;;;8.83;100.00
54512;BME280;40419;47.438;19.026;2022-10-26T04:48:02;100340.72;;;8.75;100.00
54512;BME280;40419;47.438;19.026;2022-10-26T04:50:31;100353.09;;;8.93;100.00
54512;BME280;40419;47.438;19.026;2022-10-26T04:53:01;100347.19;;;8.89;100.00
54512;BME280;40419;47.438;19.026;2022-10-26T04:55:31;100346.38;;;8.89;100.00
54512;BME280;40419;47.438;19.026;2022-10-26T04:58:02;100345.28;;;8.98;100.00
54512;BME280;40419;47.438;19.026;2022-10-26T05:00:30;100343.13;;;8.93;100.00
54512;BME280;40419;47.438;19.026;2022-10-26T05:03:04;100342.94;;;8.95;100.00
54512;BME280;40419;47.438;19.026;2022-10-26T05:05:34;100348.16;;;8.96;100.00
54512;BME280;40419;47.438;19.026;2022-10-26T05:08:03;100352.09;;;8.94;100.00
54512;BME280;40419;47.438;19.026;2022-10-26T05:10:33;100351.19;;;9.01;100.00
54512;BME280;40419;47.438;19.026;2022-10-26T05:13:01;100360.59;;;9.05;100.00
54512;BME280;40419;47.438;19.026;2022-10-26T05:15:32;100358.97;;;8.73;100.00
54512;BME280;40419;47.438;19.026;2022-10-26T05:18:03;100362.63;;;8.80;100.00
54512;BME280;40419;47.438;19.026;2022-10-26T05:20:36;100359.75;;;8.82;100.00
54512;BME280;40419;47.438;19.026;2022-10-26T05:23:10;100358.19;;;8.64;100.00
54512;BME280;40419;47.438;19.026;2022-10-26T05:25:38;100364.84;;;8.45;100.00
54512;BME280;40419;47.438;19.026;2022-10-26T05:28:11;100369.50;;;8.60;100.00
54512;BME280;40419;47.438;19.026;2022-10-26T05:30:41;100357.28;;;8.72;100.00
54512;BME280;40419;47.438;19.026;2022-10-26T05:33:08;100368.44;;;8.69;100.00
54512;BME280;40419;47.438;19.026;2022-10-26T05:35:37;100377.97;;;8.57;100.00
54512;BME280;40419;47.438;19.026;2022-10-26T05:38:09;100369.13;;;8.71;100.00
54512;BME280;40419;47.438;19.026;2022-10-26T05:40:38;100374.25;;;8.58;100.00
54512;BME280;40419;47.438;19.026;2022-10-26T05:43:15;100377.91;;;8.65;100.00
54512;BME280;40419;47.438;19.026;2022-10-26T05:45:42;100384.63;;;8.69;100.00
54512;BME280;40419;47.438;19.026;2022-10-26T05:48:13;100376.84;;;8.74;100.00
54512;BME280;40419;47.438;19.026;2022-10-26T05:50:43;100386.00;;;8.65;100.00
54512;BME280;40419;47.438;19.026;2022-10-26T05:53:09;100387.16;;;8.71;100.00
54512;BME280;40419;47.438;19.026;2022-10-26T05:55:40;100384.09;;;8.74;100.00
54512;BME280;40419;47.438;19.026;2022-10-26T05:58:12;100390.63;;;8.56;100.00
54512;BME280;40419;47.438;19.026;2022-10-26T06:06:21;100394.50;;;8.85;100.00
54512;BME280;40419;47.438;19.026;2022-10-26T06:08:47;100401.75;;;8.84;100.00
54512;BME280;40419;47.438;19.026;2022-10-26T06:11:15;100399.56;;;8.88;100.00
54512;BME280;40419;47.438;19.026;2022-10-26T06:13:41;100411.19;;;8.89;100.00
54512;BME280;40419;47.438;19.026;2022-10-26T06:19:29;100408.66;;;8.87;100.00
54512;BME280;40419;47.438;19.026;2022-10-26T06:25:26;100411.28;;;8.72;100.00
54512;BME280;40419;47.438;19.026;2022-10-26T06:30:14;100413.97;;;9.03;100.00
54512;BME280;40419;47.438;19.026;2022-10-26T06:32:43;100416.53;;;8.97;100.00
54512;BME280;40419;47.438;19.026;2022-10-26T06:35:39;100412.72;;;8.83;100.00
54512;BME280;40419;47.438;19.026;2022-10-26T06:38:13;100422.53;;;8.84;100.00
54512;BME280;40419;47.438;19.026;2022-10-26T06:40:41;100420.34;;;8.79;100.00
54512;BME280;40419;47.438;19.026;2022-10-26T06:43:24;100422.78;;;8.66;100.00
54512;BME280;40419;47.438;19.026;2022-10-26T06:46:12;100425.56;;;8.81;100.00
54512;BME280;40419;47.438;19.026;2022-10-26T06:51:27;100435.28;;;8.67;100.00
54512;BME280;40419;47.438;19.026;2022-10-26T06:54:10;100435.84;;;8.85;100.00
54512;BME280;40419;47.438;19.026;2022-10-26T06:56:45;100442.31;;;8.76;100.00
54512;BME280;40419;47.438;19.026;2022-10-26T06:59:42;100440.94;;;8.80;100.00
54512;BME280;40419;47.438;19.026;2022-10-26T07:02:10;100437.13;;;8.98;100.00
54512;BME280;40419;47.438;19.026;2022-10-26T07:04:35;100431.59;;;8.91;100.00
54512;BME280;40419;47.438;19.026;2022-10-26T07:07:01;100432.56;;;8.98;100.00
54512;BME280;40419;47.438;19.026;2022-10-26T07:09:27;100432.16;;;9.10;100.00
54512;BME280;40419;47.438;19.026;2022-10-26T07:11:52;100436.00;;;9.15;100.00
54512;BME280;40419;47.438;19.026;2022-10-26T07:14:20;100439.97;;;9.28;100.00
54512;BME280;40419;47.438;19.026;2022-10-26T07:16:46;100442.91;;;9.41;100.00
54512;BME280;40419;47.438;19.026;2022-10-26T07:19:13;100437.53;;;9.56;100.00
54512;BME280;40419;47.438;19.026;2022-10-26T07:21:39;100448.03;;;9.74;100.00
54512;BME280;40419;47.438;19.026;2022-10-26T07:24:10;100442.34;;;9.84;100.00
54512;BME280;40419;47.438;19.026;2022-10-26T07:26:40;100444.13;;;9.91;100.00
54512;BME280;40419;47.438;19.026;2022-10-26T07:29:08;100446.88;;;10.06;100.00
54512;BME280;40419;47.438;19.026;2022-10-26T07:31:33;100450.50;;;10.14;100.00
54512;BME280;40419;47.438;19.026;2022-10-26T07:34:06;100452.19;;;10.29;100.00
54512;BME280;40419;47.438;19.026;2022-10-26T07:36:36;100453.16;;;10.37;100.00
54512;BME280;40419;47.438;19.026;2022-10-26T07:39:05;100455.22;;;10.35;100.00
54512;BME280;40419;47.438;19.026;2022-10-26T07:41:31;100455.56;;;10.32;100.00
54512;BME280;40419;47.438;19.026;2022-10-26T07:43:57;100449.44;;;10.38;100.00
54512;BME280;40419;47.438;19.026;2022-10-26T07:46:22;100454.47;;;10.41;100.00
54512;BME280;40419;47.438;19.026;2022-10-26T07:48:56;100454.66;;;10.54;100.00
54512;BME280;40419;47.438;19.026;2022-10-26T07:51:26;100451.56;;;10.42;100.00
54512;BME280;40419;47.438;19.026;2022-10-26T07:53:54;100449.06;;;10.41;100.00
54512;BME280;40419;47.438;19.026;2022-10-26T07:56:24;100454.00;;;10.37;100.00
54512;BME280;40419;47.438;19.026;2022-10-26T07:58:51;100450.97;;;10.17;100.00
54512;BME280;40419;47.438;19.026;2022-10-26T08:01:17;100444.72;;;10.17;100.00
54512;BME280;40419;47.438;19.026;2022-10-26T08:03:42;100445.31;;;10.27;100.00
54512;BME280;40419;47.438;19.026;2022-10-26T08:06:12;100442.69;;;10.34;100.00
54512;BME280;40419;47.438;19.026;2022-10-26T08:08:40;100447.25;;;10.18;100.00
54512;BME280;40419;47.438;19.026;2022-10-26T08:11:08;100445.97;;;10.44;100.00
54512;BME280;40419;47.438;19.026;2022-10-26T08:13:36;100449.81;;;10.50;100.00
54512;BME280;40419;47.438;19.026;2022-10-26T08:16:04;100457.81;;;10.58;100.00
54512;BME280;40419;47.438;19.026;2022-10-26T08:18:35;100444.34;;;10.79;100.00
54512;BME280;40419;47.438;19.026;2022-10-26T08:21:09;100448.72;;;10.80;100.00
54512;BME280;40419;47.438;19.026;2022-10-26T08:23:39;100447.88;;;10.80;100.00
54512;BME280;40419;47.438;19.026;2022-10-26T08:26:11;100449.47;;;10.74;100.00
54512;BME280;40419;47.438;19.026;2022-10-26T08:28:39;100451.34;;;10.89;100.00
54512;BME280;40419;47.438;19.026;2022-10-26T08:31:05;100448.06;;;11.15;100.00
54512;BME280;40419;47.438;19.026;2022-10-26T08:33:35;100447.28;;;11.21;100.00
54512;BME280;40419;47.438;19.026;2022-10-26T08:36:06;100456.84;;;11.17;100.00
54512;BME280;40419;47.438;19.026;2022-10-26T08:38:39;100450.97;;;11.35;100.00
54512;BME280;40419;47.438;19.026;2022-10-26T08:41:07;100453.00;;;11.26;100.00
54512;BME280;40419;47.438;19.026;2022-10-26T08:43:48;100458.81;;;11.45;100.00
54512;BME280;40419;47.438;19.026;2022-10-26T08:46:38;100457.31;;;11.42;100.00
54512;BME280;40419;47.438;19.026;2022-10-26T08:51:41;100454.41;;;11.44;100.00
54512;BME280;40419;47.438;19.026;2022-10-26T08:54:44;100459.06;;;11.28;100.00
54512;BME280;40419;47.438;19.026;2022-10-26T08:57:25;100471.97;;;11.26;100.00
54512;BME280;40419;47.438;19.026;2022-10-26T09:00:02;100483.06;;;11.53;100.00
54512;BME280;40419;47.438;19.026;2022-10-26T09:02:30;100478.56;;;11.39;100.00
54512;BME280;40419;47.438;19.026;2022-10-26T09:05:01;100472.88;;;11.55;100.00
54512;BME280;40419;47.438;19.026;2022-10-26T09:10:39;100477.28;;;11.84;100.00
54512;BME280;40419;47.438;19.026;2022-10-26T09:18:36;100471.63;;;11.79;100.00
54512;BME280;40419;47.438;19.026;2022-10-26T09:26:40;100489.22;;;12.12;100.00
54512;BME280;40419;47.438;19.026;2022-10-26T09:29:16;100498.31;;;11.97;100.00
54512;BME280;40419;47.438;19.026;2022-10-26T09:31:45;100496.56;;;12.18;100.00
54512;BME280;40419;47.438;19.026;2022-10-26T09:34:17;100495.75;;;12.17;100.00
54512;BME280;40419;47.438;19.026;2022-10-26T09:36:51;100493.88;;;12.18;100.00
54512;BME280;40419;47.438;19.026;2022-10-26T09:39:38;100491.75;;;12.13;100.00
54512;BME280;40419;47.438;19.026;2022-10-26T09:42:17;100494.25;;;12.15;100.00
54512;BME280;40419;47.438;19.026;2022-10-26T09:44:53;100489.75;;;12.29;100.00
54512;BME280;40419;47.438;19.026;2022-10-26T09:47:36;100497.78;;;12.44;100.00
54512;BME280;40419;47.438;19.026;2022-10-26T09:50:28;100491.16;;;12.53;100.00
54512;BME280;40419;47.438;19.026;2022-10-26T09:53:02;100490.69;;;12.77;100.00
54512;BME280;40419;47.438;19.026;2022-10-26T09:55:30;100489.25;;;12.88;100.00
54512;BME280;40419;47.438;19.026;2022-10-26T09:58:01;100498.47;;;12.94;100.00
54512;BME280;40419;47.438;19.026;2022-10-26T10:00:28;100495.16;;;13.05;100.00
54512;BME280;40419;47.438;19.026;2022-10-26T10:02:57;100500.94;;;12.82;100.00
54512;BME280;40419;47.438;19.026;2022-10-26T10:05:29;100496.38;;;12.54;100.00
54512;BME280;40419;47.438;19.026;2022-10-26T10:10:40;100496.66;;;12.66;100.00
54512;BME280;40419;47.438;19.026;2022-10-26T10:13:22;100499.38;;;12.66;100.00
54512;BME280;40419;47.438;19.026;2022-10-26T10:16:05;100499.91;;;12.83;100.00
54512;BME280;40419;47.438;19.026;2022-10-26T10:18:35;100503.50;;;12.97;100.00
54512;BME280;40419;47.438;19.026;2022-10-26T10:21:05;100502.53;;;13.25;100.00
54512;BME280;40419;47.438;19.026;2022-10-26T10:23:45;100500.44;;;13.20;100.00
54512;BME280;40419;47.438;19.026;2022-10-26T10:26:13;100503.41;;;13.32;100.00
54512;BME280;40419;47.438;19.026;2022-10-26T10:28:42;100497.72;;;13.27;100.00
54512;BME280;40419;47.438;19.026;2022-10-26T10:31:21;100497.09;;;13.18;100.00
54512;BME280;40419;47.438;19.026;2022-10-26T10:33:54;100497.16;;;13.32;100.00
54512;BME280;40419;47.438;19.026;2022-10-26T10:36:25;100488.41;;;13.50;100.00
54512;BME280;40419;47.438;19.026;2022-10-26T10:38:54;100491.13;;;13.43;100.00
54512;BME280;40419;47.438;19.026;2022-10-26T10:46:51;100497.41;;;13.50;100.00
54512;BME280;40419;47.438;19.026;2022-10-26T10:49:27;100487.38;;;13.44;100.00
54512;BME280;40419;47.438;19.026;2022-10-26T10:51:54;100484.44;;;13.45;100.00
54512;BME280;40419;47.438;19.026;2022-10-26T10:54:26;100483.63;;;13.65;100.00
54512;BME280;40419;47.438;19.026;2022-10-26T10:56:53;100480.25;;;13.63;100.00
54512;BME280;40419;47.438;19.026;2022-10-26T11:07:52;100488.03;;;14.06;100.00
54512;BME280;40419;47.438;19.026;2022-10-26T11:10:29;100487.41;;;14.04;100.00
54512;BME280;40419;47.438;19.026;2022-10-26T11:13:24;100484.03;;;14.02;100.00
54512;BME280;40419;47.438;19.026;2022-10-26T11:16:01;100475.44;;;13.92;100.00
54512;BME280;40419;47.438;19.026;2022-10-26T11:18:49;100485.06;;;14.14;100.00
54512;BME280;40419;47.438;19.026;2022-10-26T11:21:26;100474.38;;;14.13;100.00
54512;BME280;40419;47.438;19.026;2022-10-26T11:24:09;100481.91;;;14.31;100.00
54512;BME280;40419;47.438;19.026;2022-10-26T11:29:22;100473.53;;;14.32;100.00
54512;BME280;40419;47.438;19.026;2022-10-26T11:37:41;100478.13;;;14.39;100.00
54512;BME280;40419;47.438;19.026;2022-10-26T11:40:39;100469.56;;;14.28;100.00
54512;BME280;40419;47.438;19.026;2022-10-26T11:43:26;100462.81;;;14.44;100.00
54512;BME280;40419;47.438;19.026;2022-10-26T11:48:53;100462.28;;;14.09;100.00
54512;BME280;40419;47.438;19.026;2022-10-26T11:54:06;100464.34;;;14.13;100.00
54512;BME280;40419;47.438;19.026;2022-10-26T11:56:38;100459.72;;;14.14;100.00
54512;BME280;40419;47.438;19.026;2022-10-26T11:59:15;100455.53;;;14.11;100.00
54512;BME280;40419;47.438;19.026;2022-10-26T12:01:45;100456.38;;;14.25;100.00
54512;BME280;40419;47.438;19.026;2022-10-26T12:04:13;100454.25;;;14.34;100.00
54512;BME280;40419;47.438;19.026;2022-10-26T12:06:46;100455.53;;;14.18;100.00
54512;BME280;40419;47.438;19.026;2022-10-26T12:09:21;100452.56;;;14.40;100.00
54512;BME280;40419;47.438;19.026;2022-10-26T12:14:39;100464.25;;;14.60;100.00
54512;BME280;40419;47.438;19.026;2022-10-26T12:17:34;100457.31;;;14.71;100.00
54512;BME280;40419;47.438;19.026;2022-10-26T12:22:38;100455.69;;;14.50;100.00
54512;BME280;40419;47.438;19.026;2022-10-26T12:27:50;100458.78;;;14.67;100.00
54512;BME280;40419;47.438;19.026;2022-10-26T12:30:32;100454.75;;;14.76;100.00
54512;BME280;40419;47.438;19.026;2022-10-26T12:33:02;100447.44;;;14.77;100.00
54512;BME280;40419;47.438;19.026;2022-10-26T12:35:47;100450.34;;;14.82;100.00
54512;BME280;40419;47.438;19.026;2022-10-26T12:48:49;100440.63;;;14.99;100.00
54512;BME280;40419;47.438;19.026;2022-10-26T12:57:08;100439.47;;;15.14;100.00
54512;BME280;40419;47.438;19.026;2022-10-26T12:59:43;100431.56;;;15.05;100.00
54512;BME280;40419;47.438;19.026;2022-10-26T13:02:38;100433.00;;;15.08;100.00
54512;BME280;40419;47.438;19.026;2022-10-26T13:08:08;100445.44;;;15.04;100.00
54512;BME280;40419;47.438;19.026;2022-10-26T13:10:36;100440.13;;;15.09;100.00
54512;BME280;40419;47.438;19.026;2022-10-26T13:13:06;100435.13;;;15.06;100.00
54512;BME280;40419;47.438;19.026;2022-10-26T13:15:59;100438.25;;;15.10;100.00
54512;BME280;40419;47.438;19.026;2022-10-26T13:18:30;100437.03;;;15.05;100.00
54512;BME280;40419;47.438;19.026;2022-10-26T13:23:40;100436.16;;;15.05;100.00
54512;BME280;40419;47.438;19.026;2022-10-26T13:26:25;100439.25;;;15.15;100.00
54512;BME280;40419;47.438;19.026;2022-10-26T13:28:52;100442.44;;;15.12;100.00
54512;BME280;40419;47.438;19.026;2022-10-26T13:33:58;100438.66;;;15.13;100.00
54512;BME280;40419;47.438;19.026;2022-10-26T13:36:52;100441.22;;;15.01;100.00
54512;BME280;40419;47.438;19.026;2022-10-26T13:39:28;100443.56;;;14.98;100.00
54512;BME280;40419;47.438;19.026;2022-10-26T13:41:55;100443.41;;;14.86;100.00
54512;BME280;40419;47.438;19.026;2022-10-26T13:47:08;100441.31;;;14.88;100.00
54512;BME280;40419;47.438;19.026;2022-10-26T13:49:44;100442.59;;;14.79;100.00
54512;BME280;40419;47.438;19.026;2022-10-26T13:52:18;100449.97;;;14.71;100.00
54512;BME280;40419;47.438;19.026;2022-10-26T13:54:58;100450.19;;;14.70;100.00
54512;BME280;40419;47.438;19.026;2022-10-26T13:57:35;100455.22;;;14.60;100.00
54512;BME280;40419;47.438;19.026;2022-10-26T14:00:08;100446.03;;;14.54;100.00
54512;BME280;40419;47.438;19.026;2022-10-26T14:02:42;100444.16;;;14.48;100.00
54512;BME280;40419;47.438;19.026;2022-10-26T14:05:12;100455.88;;;14.48;100.00
54512;BME280;40419;47.438;19.026;2022-10-26T14:10:33;100459.47;;;14.42;100.00
54512;BME280;40419;47.438;19.026;2022-10-26T14:13:08;100451.50;;;14.41;100.00
54512;BME280;40419;47.438;19.026;2022-10-26T14:15:43;100451.94;;;14.38;100.00
54512;BME280;40419;47.438;19.026;2022-10-26T14:18:17;100461.38;;;14.35;100.00
54512;BME280;40419;47.438;19.026;2022-10-26T14:21:00;100460.53;;;14.34;100.00
54512;BME280;40419;47.438;19.026;2022-10-26T14:23:56;100452.38;;;14.34;100.00
54512;BME280;40419;47.438;19.026;2022-10-26T14:26:29;100449.66;;;14.34;100.00
54512;BME280;40419;47.438;19.026;2022-10-26T14:28:57;100454.03;;;14.35;100.00
54512;BME280;40419;47.438;19.026;2022-10-26T14:31:28;100461.38;;;14.35;100.00
54512;BME280;40419;47.438;19.026;2022-10-26T14:34:00;100454.66;;;14.38;100.00
54512;BME280;40419;47.438;19.026;2022-10-26T14:36:37;100461.78;;;14.39;100.00
54512;BME280;40419;47.438;19.026;2022-10-26T14:39:22;100464.28;;;14.40;100.00
54512;BME280;40419;47.438;19.026;2022-10-26T14:41:56;100458.22;;;14.38;100.00
54512;BME280;40419;47.438;19.026;2022-10-26T14:44:28;100456.75;;;14.35;100.00
54512;BME280;40419;47.438;19.026;2022-10-26T14:46:58;100459.69;;;14.34;100.00
54512;BME280;40419;47.438;19.026;2022-10-26T14:49:26;100455.31;;;14.33;100.00
54512;BME280;40419;47.438;19.026;2022-10-26T14:52:03;100451.94;;;14.31;100.00
54512;BME280;40419;47.438;19.026;2022-10-26T14:54:29;100458.47;;;14.30;100.00
54512;BME280;40419;47.438;19.026;2022-10-26T14:56:56;100460.53;;;14.28;100.00
54512;BME280;40419;47.438;19.026;2022-10-26T14:59:29;100461.81;;;14.25;100.00
54512;BME280;40419;47.438;19.026;2022-10-26T15:05:14;100459.31;;;14.24;100.00
54512;BME280;40419;47.438;19.026;2022-10-26T15:07:46;100451.53;;;14.27;100.00
54512;BME280;40419;47.438;19.026;2022-10-26T15:13:23;100462.47;;;14.21;100.00